KAVL/AVL METAR and TAF weather

Enter ICAO airport designator
Station Type Date Time Source
KAVL METAR 2018/10/19 14:54 UTC NOAA

KAVL 191454Z 00000KT 10SM FEW004 10/07 A3036 RMK AO2 SLP276 T01000072 58005


Station Type Date Time Source
KAVL Decoded METAR 2018/10/19 14:54 UTC NOAA

ASHEVILLE REGIONAL AIRPORT, NC, United States (KAVL) 35-26N 82-32W 670M
Oct 19, 2018 - 10:54 AM EDT / 2018.10.19 1454 UTC
Wind: Calm:0
Visibility: 10 mile(s):0
Sky conditions: mostly clear
Temperature: 50.0 F (10.0 C)
Dew Point: 45.0 F (7.2 C)
Relative Humidity: 82%
Pressure (altimeter): 30.36 in. Hg (1028 hPa)
Pressure tendency: 0.01 inches (0.5 hPa) lower than three hours ago
ob: KAVL 191454Z 00000KT 10SM FEW004 10/07 A3036 RMK AO2 SLP276 T01000072 58005
cycle: 15

Station Type Date Time Source
KAVL TAF 2018/10/19 14:06 UTC NOAA

TAF
AMD KAVL 191404Z 1914/2012 00000KT 6SM BR OVC002
FM191500 18007KT P6SM FEW200
FM200300 20003KT P6SM VCSH SCT025 BKN110
FM200800 30004KT 6SM BR VCSH OVC025 PROB30 2009/2012 4SM -SHRA BR OVC015


Example: see airport list